createdAt,value
2022-09-06T00:00:55.831Z,2.05
2022-09-06T00:03:23.010Z,2.45
2022-09-06T00:05:50.899Z,2.80
2022-09-06T00:08:17.656Z,2.20
2022-09-06T00:10:44.417Z,2.70
2022-09-06T00:13:13.146Z,2.20
2022-09-06T00:15:40.542Z,2.03
2022-09-06T00:18:07.600Z,2.13
2022-09-06T00:20:37.609Z,2.80
2022-09-06T00:23:05.862Z,2.38
2022-09-06T00:25:33.646Z,2.75
2022-09-06T00:28:04.027Z,2.53
2022-09-06T00:30:33.097Z,2.35
2022-09-06T00:33:00.754Z,2.40
2022-09-06T00:35:28.388Z,2.65
2022-09-06T00:37:57.566Z,2.65
2022-09-06T00:40:25.044Z,3.00
2022-09-06T00:42:51.885Z,3.50
2022-09-06T00:45:19.605Z,3.60
2022-09-06T00:47:48.798Z,3.17
2022-09-06T00:50:18.153Z,3.40
2022-09-06T00:52:47.039Z,3.15
2022-09-06T00:55:14.871Z,3.17
2022-09-06T00:57:41.897Z,4.00
2022-09-06T01:00:09.839Z,3.03
2022-09-06T01:02:37.308Z,2.92
2022-09-06T01:05:06.592Z,3.25
2022-09-06T01:07:49.451Z,3.65
2022-09-06T01:10:31.895Z,4.05
2022-09-06T01:13:05.671Z,4.07
2022-09-06T01:15:41.201Z,3.97
2022-09-06T01:18:19.840Z,4.38
2022-09-06T01:21:03.618Z,4.47
2022-09-06T01:24:00.165Z,3.70
2022-09-06T01:26:53.505Z,5.80
2022-09-06T01:29:28.511Z,5.75
2022-09-06T01:32:03.756Z,5.18
2022-09-06T01:34:37.451Z,4.97
2022-09-06T01:37:11.043Z,6.30
2022-09-06T01:39:40.227Z,6.20
2022-09-06T01:42:11.156Z,6.05
2022-09-06T01:44:43.195Z,6.18
2022-09-06T01:47:21.975Z,6.53
2022-09-06T01:50:02.666Z,5.32
2022-09-06T01:52:36.021Z,5.25
2022-09-06T01:55:10.739Z,5.53
2022-09-06T01:57:53.418Z,5.38
2022-09-06T02:00:22.483Z,5.40
2022-09-06T02:02:57.438Z,5.75
2022-09-06T02:05:28.502Z,5.60
2022-09-06T02:08:01.294Z,5.03
2022-09-06T02:10:32.098Z,4.68
2022-09-06T02:13:01.055Z,5.53
2022-09-06T02:15:32.825Z,5.35
2022-09-06T02:18:04.534Z,5.20
2022-09-06T02:20:34.834Z,5.55
2022-09-06T02:23:06.103Z,5.50
2022-09-06T02:25:37.542Z,4.10
2022-09-06T02:28:06.554Z,4.95
2022-09-06T02:30:38.293Z,5.20
2022-09-06T02:33:13.523Z,5.30
2022-09-06T02:35:46.104Z,5.05
2022-09-06T02:38:13.861Z,5.22
2022-09-06T02:40:41.307Z,5.65
2022-09-06T02:43:08.391Z,5.25
2022-09-06T02:45:37.260Z,5.57
2022-09-06T02:48:04.399Z,5.25
2022-09-06T02:50:31.190Z,5.75
2022-09-06T02:53:03.586Z,6.35
2022-09-06T02:55:30.374Z,6.75
2022-09-06T02:57:57.101Z,6.38
2022-09-06T03:00:24.606Z,6.10
2022-09-06T03:02:52.742Z,6.80
2022-09-06T03:05:19.537Z,6.80
2022-09-06T03:07:46.937Z,7.05
2022-09-06T03:10:13.765Z,6.32
2022-09-06T03:12:42.158Z,7.10
2022-09-06T03:15:10.253Z,7.07
2022-09-06T03:17:37.118Z,6.80
2022-09-06T03:20:06.733Z,6.22
2022-09-06T03:22:34.109Z,5.95
2022-09-06T03:25:00.888Z,6.97
2022-09-06T03:27:27.691Z,6.03
2022-09-06T03:29:55.038Z,6.82
2022-09-06T03:32:21.808Z,5.32
2022-09-06T03:34:48.613Z,5.57
2022-09-06T03:37:17.473Z,7.03
2022-09-06T03:39:44.272Z,7.00
2022-09-06T03:42:11.146Z,7.68
2022-09-06T03:44:38.512Z,7.88
2022-09-06T03:47:05.793Z,8.82
2022-09-06T03:49:32.590Z,8.73
2022-09-06T03:51:59.956Z,8.15
2022-09-06T03:54:28.057Z,9.35
2022-09-06T03:56:54.983Z,9.32
2022-09-06T03:59:22.362Z,8.77
2022-09-06T04:01:49.158Z,8.35
2022-09-06T04:04:16.005Z,8.52
2022-09-06T04:06:43.419Z,9.93
2022-09-06T04:09:10.396Z,9.43
2022-09-06T04:11:38.495Z,9.52
2022-09-06T04:14:05.847Z,10.80
2022-09-06T04:16:32.666Z,10.18
2022-09-06T04:18:59.719Z,11.30
2022-09-06T04:21:27.178Z,9.88
2022-09-06T04:23:53.969Z,11.38
2022-09-06T04:26:20.770Z,11.43
2022-09-06T04:28:49.494Z,11.90
2022-09-06T04:31:16.276Z,11.93
2022-09-06T04:33:43.034Z,12.95
2022-09-06T04:36:11.562Z,12.82
2022-09-06T04:38:39.921Z,12.57
2022-09-06T04:41:07.913Z,12.00
2022-09-06T04:43:35.299Z,12.10
2022-09-06T04:46:11.108Z,12.30
2022-09-06T04:48:38.599Z,11.77
2022-09-06T04:51:05.611Z,12.85
2022-09-06T04:53:32.360Z,13.02
2022-09-06T04:55:59.761Z,13.25
2022-09-06T04:58:26.624Z,12.48
2022-09-06T05:00:53.579Z,12.57
2022-09-06T05:03:22.328Z,13.65
2022-09-06T05:05:49.078Z,13.07
2022-09-06T05:08:15.919Z,12.57
2022-09-06T05:10:43.290Z,13.52
2022-09-06T05:13:10.080Z,12.45
2022-09-06T05:15:36.862Z,13.90
2022-09-06T05:18:05.246Z,13.68
2022-09-06T05:20:33.468Z,12.75
2022-09-06T05:23:00.215Z,12.27
2022-09-06T05:25:27.577Z,13.55
2022-09-06T05:27:54.336Z,12.88
2022-09-06T05:30:21.150Z,13.80
2022-09-06T05:32:48.531Z,14.27
2022-09-06T05:35:15.414Z,14.90
2022-09-06T05:37:43.515Z,14.68
2022-09-06T05:40:11.070Z,15.20
2022-09-06T05:42:37.858Z,15.35
2022-09-06T05:45:05.423Z,13.38
2022-09-06T05:47:32.829Z,13.43
2022-09-06T05:49:59.579Z,13.25
2022-09-06T05:52:26.370Z,13.65
2022-09-06T05:54:55.075Z,12.82
2022-09-06T05:57:22.079Z,16.02
2022-09-06T05:59:48.838Z,15.15
2022-09-06T06:02:16.242Z,16.25
2022-09-06T06:04:43.022Z,16.75
2022-09-06T06:07:09.803Z,16.83
2022-09-06T06:09:37.188Z,15.32
2022-09-06T06:12:05.906Z,13.60
2022-09-06T06:14:33.853Z,14.18
2022-09-06T06:17:01.339Z,13.77
2022-09-06T06:19:28.197Z,14.10
2022-09-06T06:21:55.731Z,13.30
2022-09-06T06:24:23.114Z,12.45
2022-09-06T06:26:49.928Z,12.68
2022-09-06T06:29:18.026Z,12.70
2022-09-06T06:31:45.422Z,10.68
2022-09-06T06:34:12.229Z,10.43
2022-09-06T06:36:38.999Z,10.10
2022-09-06T06:39:07.806Z,10.68
2022-09-06T06:41:34.594Z,9.48
2022-09-06T06:44:02.902Z,8.82
2022-09-06T06:46:33.618Z,7.90
2022-09-06T06:49:00.508Z,8.15
2022-09-06T06:51:28.679Z,7.57
2022-09-06T06:53:56.673Z,8.85
2022-09-06T06:56:25.149Z,8.52
2022-09-06T06:58:54.323Z,8.05
2022-09-06T07:01:23.350Z,7.88
2022-09-06T07:03:51.982Z,8.25
2022-09-06T07:08:47.328Z,8.73
2022-09-06T07:11:15.686Z,8.73
2022-09-06T07:13:42.827Z,8.18
2022-09-06T07:16:12.181Z,9.15
2022-09-06T07:18:39.506Z,8.88
2022-09-06T07:24:06.526Z,9.20
2022-09-06T07:26:34.967Z,8.48
2022-09-06T07:29:03.747Z,8.55
2022-09-06T07:34:18.076Z,8.60
2022-09-06T07:36:46.205Z,8.45
2022-09-06T07:39:12.970Z,7.65
2022-09-06T07:41:40.374Z,6.80
2022-09-06T07:44:07.123Z,8.20
2022-09-06T07:46:34.034Z,7.35
2022-09-06T07:49:04.286Z,8.00
2022-09-06T07:51:31.201Z,7.45
2022-09-06T07:54:26.318Z,8.00
2022-09-06T07:56:47.070Z,7.57
2022-09-06T07:59:14.105Z,7.50
2022-09-06T08:01:41.659Z,7.35
2022-09-06T08:04:10.560Z,7.32
2022-09-06T08:09:27.989Z,6.43
2022-09-06T08:11:54.726Z,6.10
2022-09-06T08:14:21.510Z,7.50
2022-09-06T08:16:48.900Z,6.78
2022-09-06T08:19:15.787Z,7.82
2022-09-06T08:21:42.540Z,7.25
2022-09-06T08:24:10.084Z,6.43
2022-09-06T08:26:38.963Z,7.15
2022-09-06T08:29:06.950Z,7.57
2022-09-06T08:34:03.143Z,7.07
2022-09-06T08:36:30.986Z,7.30
2022-09-06T08:38:59.007Z,7.13
2022-09-06T08:41:27.962Z,7.00
2022-09-06T08:46:54.235Z,7.18
2022-09-06T08:49:21.423Z,7.32
2022-09-06T08:52:16.170Z,6.23
2022-09-06T08:54:48.495Z,6.20
2022-09-06T08:57:40.157Z,7.07
2022-09-06T09:00:11.674Z,6.82
2022-09-06T09:02:44.671Z,7.07
2022-09-06T09:05:20.475Z,5.68
2022-09-06T09:07:55.447Z,7.32
2022-09-06T09:10:27.219Z,6.20
2022-09-06T09:12:54.914Z,6.07
2022-09-06T09:15:23.294Z,5.45
2022-09-06T09:17:51.274Z,5.57
2022-09-06T09:20:18.873Z,5.93
2022-09-06T09:22:46.237Z,5.43
2022-09-06T09:25:19.926Z,6.63
2022-09-06T09:27:48.283Z,5.85
2022-09-06T09:33:21.540Z,4.97
2022-09-06T09:35:48.485Z,4.68
2022-09-06T09:38:21.494Z,4.50
2022-09-06T09:40:52.623Z,2.70
2022-09-06T09:43:22.961Z,2.67
2022-09-06T09:46:10.942Z,2.28
2022-09-06T09:48:41.038Z,2.10
2022-09-06T09:51:26.136Z,2.75
2022-09-06T09:53:56.356Z,2.80
2022-09-06T09:56:29.936Z,3.25
2022-09-06T09:58:58.550Z,2.58
2022-09-06T10:01:28.818Z,2.63
2022-09-06T10:07:09.440Z,2.70
2022-09-06T10:09:39.585Z,3.30
2022-09-06T10:12:07.281Z,3.40
2022-09-06T10:14:42.023Z,3.75
2022-09-06T10:17:18.863Z,3.55
2022-09-06T10:19:47.399Z,2.78
2022-09-06T10:22:27.067Z,2.90
2022-09-06T10:25:20.052Z,2.83
2022-09-06T10:28:15.020Z,2.90
2022-09-06T10:30:52.360Z,2.70
2022-09-06T10:33:27.603Z,2.40
2022-09-06T10:35:58.584Z,2.50
2022-09-06T10:38:41.610Z,2.75
2022-09-06T10:41:25.419Z,2.63
2022-09-06T10:44:06.175Z,2.70
2022-09-06T10:46:35.259Z,3.20
2022-09-06T10:49:02.688Z,2.83
2022-09-06T10:51:38.284Z,2.67
2022-09-06T10:54:09.239Z,3.03
2022-09-06T10:56:42.163Z,2.80
2022-09-06T11:02:13.141Z,2.95
2022-09-06T11:07:32.598Z,2.58
2022-09-06T11:10:04.881Z,2.38
2022-09-06T11:12:39.703Z,2.85
2022-09-06T11:15:11.524Z,2.92
2022-09-06T11:17:46.924Z,2.58
2022-09-06T11:20:20.075Z,2.58
2022-09-06T11:23:16.067Z,2.45
2022-09-06T11:26:11.780Z,2.75
2022-09-06T11:28:44.597Z,2.53
2022-09-06T11:34:10.094Z,2.35
2022-09-06T11:36:45.080Z,2.97
2022-09-06T11:39:14.240Z,2.03
2022-09-06T11:41:42.505Z,2.03
2022-09-06T11:44:10.361Z,3.00
2022-09-06T11:46:59.671Z,3.30
2022-09-06T11:49:32.688Z,2.70
2022-09-06T11:51:59.995Z,2.78
2022-09-06T11:54:46.769Z,2.97
2022-09-06T11:57:16.469Z,3.05
2022-09-06T11:59:56.225Z,2.75
2022-09-06T12:02:35.785Z,2.90
2022-09-06T12:05:21.918Z,2.75
2022-09-06T12:08:23.508Z,3.20
2022-09-06T12:10:59.622Z,3.30
2022-09-06T12:13:34.830Z,3.30
2022-09-06T12:16:02.624Z,3.25
2022-09-06T12:18:55.374Z,3.70
2022-09-06T12:21:37.897Z,3.55
2022-09-06T12:24:06.075Z,4.20
2022-09-06T12:26:54.467Z,4.10
2022-09-06T12:29:25.324Z,4.03
2022-09-06T12:31:54.073Z,4.30
2022-09-06T12:36:53.127Z,4.07
2022-09-06T12:39:20.557Z,3.95
2022-09-06T12:41:51.021Z,4.90
2022-09-06T12:44:22.725Z,4.55
2022-09-06T12:46:51.532Z,3.90
2022-09-06T12:49:20.696Z,4.15
2022-09-06T12:51:47.937Z,4.15
2022-09-06T12:54:21.603Z,4.13
2022-09-06T12:56:50.465Z,3.15
2022-09-06T12:59:19.863Z,2.35
2022-09-06T13:01:55.941Z,2.10
2022-09-06T13:04:29.561Z,2.92
2022-09-06T13:06:57.480Z,2.40
2022-09-06T13:09:25.806Z,2.30
2022-09-06T13:12:00.936Z,2.20
2022-09-06T13:14:31.003Z,2.40
2022-09-06T13:16:57.802Z,2.85
2022-09-06T13:19:33.622Z,3.33
2022-09-06T13:22:02.345Z,3.30
2022-09-06T13:27:32.730Z,3.97
2022-09-06T13:30:00.927Z,5.22
2022-09-06T13:32:29.103Z,3.10
2022-09-06T13:34:58.747Z,2.67
2022-09-06T13:37:28.107Z,2.78
2022-09-06T13:39:55.622Z,3.00
2022-09-06T13:42:29.730Z,3.03
2022-09-06T13:45:01.931Z,2.97
2022-09-06T13:47:29.596Z,1.98
2022-09-06T13:49:56.940Z,3.40
2022-09-06T13:52:23.689Z,3.20
2022-09-06T13:54:50.446Z,2.97
2022-09-06T13:57:23.541Z,3.30
2022-09-06T13:59:52.336Z,3.03
2022-09-06T14:02:19.736Z,3.83
2022-09-06T14:04:46.549Z,4.38
2022-09-06T14:07:13.315Z,4.03
2022-09-06T14:09:40.714Z,2.67
2022-09-06T14:12:07.542Z,3.03
2022-09-06T14:14:34.372Z,3.03
2022-09-06T14:17:03.117Z,2.92
2022-09-06T14:19:29.856Z,2.60
2022-09-06T14:21:56.645Z,3.28
2022-09-06T14:24:24.022Z,3.85
2022-09-06T14:26:50.767Z,3.20
2022-09-06T14:29:17.562Z,2.58
2022-09-06T14:31:45.319Z,3.55
2022-09-06T14:34:13.528Z,3.55
2022-09-06T14:36:40.348Z,2.80
2022-09-06T14:39:07.731Z,2.47
2022-09-06T14:41:34.996Z,3.00
2022-09-06T14:44:02.102Z,2.70
2022-09-06T14:46:29.860Z,3.05
2022-09-06T14:48:57.935Z,2.53
2022-09-06T14:51:26.394Z,2.90
2022-09-06T14:53:56.239Z,2.40
2022-09-06T14:56:23.248Z,2.40
2022-09-06T14:58:50.312Z,2.88
2022-09-06T15:01:20.242Z,2.90
2022-09-06T15:03:48.725Z,2.80
2022-09-06T15:06:16.096Z,2.55
2022-09-06T15:08:45.292Z,2.50
2022-09-06T15:11:12.279Z,2.20
2022-09-06T15:13:40.183Z,2.20
2022-09-06T15:16:09.439Z,2.13
2022-09-06T15:18:36.906Z,1.88
2022-09-06T15:21:09.357Z,2.08
2022-09-06T15:23:37.002Z,1.88
2022-09-06T15:26:07.341Z,1.80
2022-09-06T15:28:34.379Z,2.05
2022-09-06T15:31:01.773Z,2.40
2022-09-06T15:33:29.541Z,2.30
2022-09-06T15:35:56.877Z,2.38
2022-09-06T15:38:24.385Z,2.63
2022-09-06T15:40:51.158Z,2.05
2022-09-06T15:43:19.351Z,2.00
2022-09-06T15:45:48.737Z,2.30
2022-09-06T15:48:17.045Z,2.50
2022-09-06T15:53:20.100Z,1.90
2022-09-06T15:55:46.846Z,2.40
2022-09-06T15:58:13.587Z,2.17
2022-09-06T16:00:42.428Z,2.50
2022-09-06T16:08:23.404Z,2.50
2022-09-06T16:10:50.190Z,2.67
2022-09-06T16:13:16.942Z,2.05
2022-09-06T16:15:55.785Z,1.80
2022-09-06T16:20:50.098Z,1.98
2022-09-06T16:23:16.890Z,2.08
2022-09-06T16:25:47.827Z,1.95
2022-09-06T16:28:15.830Z,1.88
2022-09-06T16:30:43.218Z,2.17
2022-09-06T16:33:12.030Z,1.93
2022-09-06T16:35:40.146Z,1.90
2022-09-06T16:38:09.161Z,2.20
2022-09-06T16:40:36.631Z,2.35
2022-09-06T16:43:04.237Z,2.40
2022-09-06T16:45:31.115Z,2.80
2022-09-06T16:47:57.884Z,2.17
2022-09-06T16:50:26.712Z,2.22
2022-09-06T16:52:53.470Z,2.13
2022-09-06T16:55:20.290Z,2.38
2022-09-06T16:57:47.923Z,2.30
2022-09-06T17:00:15.194Z,2.20
2022-09-06T17:02:46.889Z,2.10
2022-09-06T17:05:14.769Z,2.20
2022-09-06T17:07:42.838Z,2.50
2022-09-06T17:10:09.832Z,1.92
2022-09-06T17:12:37.252Z,2.40
2022-09-06T17:15:04.624Z,2.20
2022-09-06T17:17:31.366Z,2.33
2022-09-06T17:19:58.798Z,2.50
2022-09-06T17:22:25.665Z,2.20
2022-09-06T17:24:53.775Z,2.40
2022-09-06T17:27:21.155Z,2.50
2022-09-06T17:29:47.931Z,2.65
2022-09-06T17:32:14.665Z,2.40
2022-09-06T17:34:42.025Z,2.63
2022-09-06T17:37:08.844Z,3.00
2022-09-06T17:39:35.975Z,2.45
2022-09-06T17:42:05.065Z,2.35
2022-09-06T17:44:31.814Z,2.50
2022-09-06T17:47:14.425Z,2.58
2022-09-06T17:49:42.329Z,2.58
2022-09-06T17:52:09.138Z,2.45
2022-09-06T17:54:35.892Z,3.13
2022-09-06T17:57:04.797Z,2.85
2022-09-06T17:59:35.402Z,3.17
2022-09-06T18:02:04.082Z,3.05
2022-09-06T18:04:30.929Z,3.03
2022-09-06T18:06:57.718Z,3.00
2022-09-06T18:09:25.045Z,3.10
2022-09-06T18:11:51.774Z,2.65
2022-09-06T18:14:19.923Z,2.65
2022-09-06T18:16:48.235Z,2.90
2022-09-06T18:19:15.890Z,2.90
2022-09-06T18:21:42.665Z,2.90
2022-09-06T18:24:10.810Z,3.35
2022-09-06T18:26:37.666Z,3.40
2022-09-06T18:29:05.315Z,3.17
2022-09-06T18:31:34.382Z,3.25
2022-09-06T18:34:01.265Z,3.50
2022-09-06T18:36:32.027Z,4.22
2022-09-06T18:39:00.490Z,4.00
2022-09-06T18:41:27.274Z,3.55
2022-09-06T18:43:55.719Z,3.58
2022-09-06T18:46:23.114Z,3.53
2022-09-06T18:48:51.255Z,3.78
2022-09-06T18:51:18.069Z,3.83
2022-09-06T18:53:45.466Z,3.60
2022-09-06T18:56:13.851Z,3.72
2022-09-06T18:58:40.725Z,4.00
2022-09-06T19:01:11.094Z,3.47
2022-09-06T19:03:38.993Z,3.60
2022-09-06T19:06:15.862Z,3.38
2022-09-06T19:08:43.935Z,3.60
2022-09-06T19:11:12.609Z,4.18
2022-09-06T19:16:09.721Z,3.95
2022-09-06T19:18:37.926Z,3.40
2022-09-06T19:21:06.253Z,4.30
2022-09-06T19:23:39.958Z,5.05
2022-09-06T19:26:09.988Z,4.72
2022-09-06T19:28:38.668Z,5.07
2022-09-06T19:34:03.304Z,5.38
2022-09-06T19:36:31.203Z,5.68
2022-09-06T19:39:04.204Z,5.00
2022-09-06T19:41:33.566Z,4.68
2022-09-06T19:44:00.616Z,4.63
2022-09-06T19:46:27.961Z,5.60
2022-09-06T19:48:56.337Z,5.03
2022-09-06T19:51:24.278Z,5.13
2022-09-06T19:53:53.054Z,5.10
2022-09-06T19:56:23.566Z,4.78
2022-09-06T19:58:53.866Z,4.82
2022-09-06T20:01:22.171Z,4.53
2022-09-06T20:03:49.004Z,4.60
2022-09-06T20:06:15.813Z,4.95
2022-09-06T20:08:43.179Z,5.45
2022-09-06T20:11:10.897Z,4.95
2022-09-06T20:13:39.556Z,5.40
2022-09-06T20:16:08.982Z,5.68
2022-09-06T20:18:35.861Z,5.90
2022-09-06T20:21:03.358Z,6.57
2022-09-06T20:23:32.094Z,5.82
2022-09-06T20:26:00.096Z,5.68
2022-09-06T20:28:27.295Z,5.40
2022-09-06T20:30:58.840Z,5.47
2022-09-06T20:33:25.607Z,6.68
2022-09-06T20:35:56.716Z,6.03
2022-09-06T20:38:24.668Z,6.25
2022-09-06T20:41:02.058Z,6.75
2022-09-06T20:43:30.075Z,6.45
2022-09-06T20:45:58.219Z,6.13
2022-09-06T20:48:25.168Z,7.13
2022-09-06T20:50:59.608Z,7.45
2022-09-06T20:53:27.051Z,6.35
2022-09-06T20:55:59.092Z,6.95
2022-09-06T20:58:26.251Z,5.82
2022-09-06T21:00:54.037Z,6.43
2022-09-06T21:03:22.258Z,7.00
2022-09-06T21:05:49.460Z,5.15
2022-09-06T21:08:17.094Z,6.60
2022-09-06T21:10:44.018Z,6.20
2022-09-06T21:13:11.001Z,6.38
2022-09-06T21:15:39.748Z,6.28
2022-09-06T21:18:07.138Z,6.55
2022-09-06T21:20:35.402Z,5.82
2022-09-06T21:23:03.134Z,5.13
2022-09-06T21:25:29.970Z,6.07
2022-09-06T21:27:56.770Z,4.97
2022-09-06T21:30:24.142Z,5.80
2022-09-06T21:32:54.089Z,5.60
2022-09-06T21:35:20.862Z,5.45
2022-09-06T21:37:51.296Z,7.03
2022-09-06T21:40:18.049Z,7.25
2022-09-06T21:42:44.807Z,6.50
2022-09-06T21:45:12.419Z,6.32
2022-09-06T21:47:39.377Z,6.25
2022-09-06T21:50:06.595Z,6.07
2022-09-06T21:52:33.979Z,6.67
2022-09-06T21:55:02.145Z,6.53
2022-09-06T21:57:28.889Z,6.97
2022-09-06T21:59:56.232Z,6.75
2022-09-06T22:02:23.091Z,6.60
2022-09-06T22:04:49.918Z,7.03
2022-09-06T22:07:17.291Z,7.10
2022-09-06T22:09:44.050Z,7.13
2022-09-06T22:12:12.138Z,8.35
2022-09-06T22:17:06.159Z,7.05
2022-09-06T22:19:32.899Z,7.57
2022-09-06T22:22:00.289Z,6.25
2022-09-06T22:24:27.059Z,7.65
2022-09-06T22:26:53.827Z,6.80
2022-09-06T22:29:22.549Z,7.53
2022-09-06T22:31:49.325Z,8.38
2022-09-06T22:34:16.131Z,8.38
2022-09-06T22:36:43.521Z,10.27
2022-09-06T22:39:10.304Z,10.23
2022-09-06T22:41:37.191Z,10.65
2022-09-06T22:44:04.948Z,8.75
2022-09-06T22:46:33.496Z,6.93
2022-09-06T22:49:00.650Z,8.10
2022-09-06T22:51:28.070Z,8.27
2022-09-06T22:53:54.882Z,10.02
2022-09-06T22:56:21.742Z,6.68
2022-09-06T22:58:49.096Z,8.68
2022-09-06T23:01:17.218Z,7.97
2022-09-06T23:03:45.460Z,8.73
2022-09-06T23:08:40.630Z,8.30
2022-09-06T23:11:09.010Z,8.27
2022-09-06T23:13:36.350Z,9.02
2022-09-06T23:16:04.730Z,8.35
2022-09-06T23:18:31.901Z,7.85
2022-09-06T23:21:05.638Z,8.82
2022-09-06T23:23:32.435Z,8.00
2022-09-06T23:26:03.887Z,9.32
2022-09-06T23:28:30.773Z,7.97
2022-09-06T23:30:57.728Z,5.90
2022-09-06T23:33:25.111Z,4.82
2022-09-06T23:35:54.108Z,3.30
2022-09-06T23:38:22.181Z,3.50
2022-09-06T23:40:49.527Z,3.72
2022-09-06T23:43:16.293Z,2.88
2022-09-06T23:45:43.030Z,2.42
2022-09-06T23:48:10.411Z,2.65
2022-09-06T23:50:37.191Z,2.67
2022-09-06T23:53:04.017Z,2.00
2022-09-06T23:55:32.727Z,2.63
2022-09-06T23:57:59.455Z,2.42
